createdAt,value
2022-08-26T00:00:40.543Z,15.78
2022-08-26T00:01:41.451Z,15.75
2022-08-26T00:02:42.366Z,15.75
2022-08-26T00:03:43.331Z,15.72
2022-08-26T00:04:44.157Z,15.67
2022-08-26T00:05:45.059Z,15.60
2022-08-26T00:06:46.459Z,15.54
2022-08-26T00:07:46.995Z,15.53
2022-08-26T00:08:47.880Z,15.50
2022-08-26T00:09:48.780Z,15.49
2022-08-26T00:10:49.436Z,15.47
2022-08-26T00:11:50.327Z,15.47
2022-08-26T00:12:50.898Z,15.47
2022-08-26T00:13:51.779Z,15.49
2022-08-26T00:14:52.634Z,15.50
2022-08-26T00:15:53.545Z,15.49
2022-08-26T00:16:55.210Z,15.47
2022-08-26T00:17:55.095Z,15.43
2022-08-26T00:18:55.979Z,15.39
2022-08-26T00:19:56.893Z,15.38
2022-08-26T00:20:57.778Z,15.36
2022-08-26T00:21:58.682Z,15.35
2022-08-26T00:22:59.366Z,15.35
2022-08-26T00:24:00.289Z,15.29
2022-08-26T00:25:01.176Z,15.28
2022-08-26T00:26:02.056Z,15.27
2022-08-26T00:27:02.939Z,15.25
2022-08-26T00:28:03.636Z,15.23
2022-08-26T00:29:04.482Z,15.20
2022-08-26T00:30:05.464Z,15.20
2022-08-26T00:31:06.029Z,15.20
2022-08-26T00:32:06.875Z,15.19
2022-08-26T00:33:07.451Z,15.19
2022-08-26T00:34:09.553Z,15.20
2022-08-26T00:35:08.447Z,15.17
2022-08-26T00:36:09.337Z,15.16
2022-08-26T00:37:14.518Z,15.16
2022-08-26T00:38:11.883Z,15.16
2022-08-26T00:39:11.767Z,15.16
2022-08-26T00:40:12.699Z,15.16
2022-08-26T00:41:13.545Z,15.17
2022-08-26T00:42:14.428Z,15.17
2022-08-26T00:43:15.197Z,15.20
2022-08-26T00:44:16.080Z,15.21
2022-08-26T00:45:16.964Z,15.25
2022-08-26T00:46:17.920Z,15.25
2022-08-26T00:47:18.795Z,15.27
2022-08-26T00:48:19.607Z,15.28
2022-08-26T00:49:20.491Z,15.29
2022-08-26T00:50:21.372Z,15.29
2022-08-26T00:51:22.256Z,15.31
2022-08-26T00:52:22.927Z,15.34
2022-08-26T00:53:23.974Z,15.32
2022-08-26T00:54:26.930Z,15.34
2022-08-26T00:55:37.775Z,15.35
2022-08-26T00:56:27.354Z,15.34
2022-08-26T00:57:27.226Z,15.35
2022-08-26T00:58:28.146Z,15.34
2022-08-26T00:59:29.017Z,15.32
2022-08-26T01:00:29.684Z,15.31
2022-08-26T01:01:30.757Z,15.29
2022-08-26T01:02:31.201Z,15.28
2022-08-26T01:03:32.066Z,15.25
2022-08-26T01:04:32.973Z,15.25
2022-08-26T01:05:33.834Z,15.25
2022-08-26T01:06:34.717Z,15.23
2022-08-26T01:07:35.302Z,15.21
2022-08-26T01:08:36.197Z,15.21
2022-08-26T01:09:37.078Z,15.23
2022-08-26T01:10:38.033Z,15.21
2022-08-26T01:11:38.646Z,15.21
2022-08-26T01:12:40.341Z,15.25
2022-08-26T01:13:40.222Z,15.25
2022-08-26T01:14:41.105Z,15.23
2022-08-26T01:15:42.874Z,15.25
2022-08-26T01:16:44.221Z,15.25
2022-08-26T01:17:43.845Z,15.28
2022-08-26T01:18:44.247Z,15.28
2022-08-26T01:19:45.131Z,15.28
2022-08-26T01:20:45.704Z,15.31
2022-08-26T01:21:46.588Z,15.29
2022-08-26T01:22:47.498Z,15.31
2022-08-26T01:23:48.001Z,15.32
2022-08-26T01:24:48.882Z,15.34
2022-08-26T01:25:49.765Z,15.32
2022-08-26T01:26:50.643Z,15.31
2022-08-26T01:27:51.523Z,15.32
2022-08-26T01:28:52.456Z,15.31
2022-08-26T01:29:53.436Z,15.29
2022-08-26T01:30:54.268Z,15.28
2022-08-26T01:31:55.230Z,15.27
2022-08-26T01:32:56.075Z,15.28
2022-08-26T01:33:56.985Z,15.27
2022-08-26T01:34:57.482Z,15.25
2022-08-26T01:35:58.444Z,15.23
2022-08-26T01:36:59.427Z,15.25
2022-08-26T01:38:00.320Z,15.23
2022-08-26T01:39:01.211Z,15.25
2022-08-26T01:40:02.142Z,15.25
2022-08-26T01:41:03.001Z,15.23
2022-08-26T01:42:04.761Z,15.27
2022-08-26T01:43:05.691Z,15.25
2022-08-26T01:44:05.124Z,15.28
2022-08-26T01:45:06.022Z,15.27
2022-08-26T01:46:07.015Z,15.28
2022-08-26T01:47:07.544Z,15.28
2022-08-26T01:48:08.383Z,15.28
2022-08-26T01:49:09.175Z,15.28
2022-08-26T01:50:10.052Z,15.29
2022-08-26T01:51:10.923Z,15.28
2022-08-26T01:52:11.807Z,15.27
2022-08-26T01:53:12.745Z,15.25
2022-08-26T01:54:13.732Z,15.25
2022-08-26T01:55:14.260Z,15.23
2022-08-26T01:56:16.032Z,15.21
2022-08-26T01:57:15.944Z,15.23
2022-08-26T01:58:16.845Z,15.23
2022-08-26T01:59:17.814Z,15.21
2022-08-26T02:00:18.233Z,15.21
2022-08-26T02:01:19.145Z,15.21
2022-08-26T02:02:19.999Z,15.21
2022-08-26T02:03:20.882Z,15.21
2022-08-26T02:04:21.785Z,15.20
2022-08-26T02:05:22.697Z,15.19
2022-08-26T02:06:23.553Z,15.20
2022-08-26T02:07:24.268Z,15.17
2022-08-26T02:08:25.377Z,15.19
2022-08-26T02:09:25.806Z,15.16
2022-08-26T02:10:26.573Z,15.13
2022-08-26T02:11:27.494Z,15.09
2022-08-26T02:12:28.350Z,15.07
2022-08-26T02:13:29.226Z,15.03
2022-08-26T02:14:30.120Z,15.01
2022-08-26T02:15:31.003Z,14.99
2022-08-26T02:16:31.948Z,14.99
2022-08-26T02:17:32.724Z,14.98
2022-08-26T02:18:33.652Z,14.98
2022-08-26T02:19:34.468Z,14.96
2022-08-26T02:20:35.350Z,14.94
2022-08-26T02:21:36.223Z,14.91
2022-08-26T02:22:37.108Z,14.86
2022-08-26T02:23:38.185Z,14.86
2022-08-26T02:24:38.532Z,14.83
2022-08-26T02:25:39.416Z,14.83
2022-08-26T02:26:40.307Z,14.84
2022-08-26T02:27:41.190Z,14.83
2022-08-26T02:28:42.074Z,14.81
2022-08-26T02:29:43.007Z,14.81
2022-08-26T02:30:43.870Z,14.80
2022-08-26T02:31:44.821Z,14.80
2022-08-26T02:32:45.676Z,14.78
2022-08-26T02:33:46.561Z,14.77
2022-08-26T02:34:47.452Z,14.73
2022-08-26T02:35:48.363Z,14.73
2022-08-26T02:36:49.227Z,14.73
2022-08-26T02:37:50.135Z,14.75
2022-08-26T02:38:50.944Z,14.80
2022-08-26T02:39:51.542Z,14.83
2022-08-26T02:40:51.981Z,14.84
2022-08-26T02:41:52.903Z,14.84
2022-08-26T02:42:55.864Z,14.88
2022-08-26T02:43:54.316Z,14.89
2022-08-26T02:44:55.208Z,14.89
2022-08-26T02:45:56.093Z,14.89
2022-08-26T02:46:56.998Z,14.88
2022-08-26T02:47:57.898Z,14.91
2022-08-26T02:48:58.393Z,14.91
2022-08-26T02:49:59.286Z,14.92
2022-08-26T02:51:00.172Z,14.91
2022-08-26T02:52:01.866Z,14.92
2022-08-26T02:53:01.956Z,14.92
2022-08-26T02:54:02.864Z,14.88
2022-08-26T02:55:03.602Z,14.88
2022-08-26T02:56:04.428Z,14.86
2022-08-26T02:57:05.313Z,14.83
2022-08-26T02:58:06.056Z,14.80
2022-08-26T02:59:06.888Z,14.77
2022-08-26T03:00:07.833Z,14.73
2022-08-26T03:01:08.637Z,14.68
2022-08-26T03:02:09.264Z,14.62
2022-08-26T03:03:10.153Z,14.55
2022-08-26T03:04:10.988Z,14.50
2022-08-26T03:05:11.967Z,14.45
2022-08-26T03:06:12.836Z,14.37
2022-08-26T03:07:13.718Z,14.32
2022-08-26T03:08:14.602Z,14.25
2022-08-26T03:09:18.930Z,14.20
2022-08-26T03:10:16.310Z,14.18
2022-08-26T03:11:17.204Z,14.14
2022-08-26T03:12:18.078Z,14.12
2022-08-26T03:13:18.651Z,14.10
2022-08-26T03:14:19.537Z,14.09
2022-08-26T03:15:20.427Z,14.10
2022-08-26T03:16:21.372Z,14.09
2022-08-26T03:17:21.918Z,14.04
2022-08-26T03:18:22.799Z,14.02
2022-08-26T03:19:23.333Z,14.03
2022-08-26T03:20:24.188Z,13.99
2022-08-26T03:21:25.072Z,13.97
2022-08-26T03:22:26.003Z,13.95
2022-08-26T03:23:26.935Z,13.95
2022-08-26T03:24:27.818Z,13.92
2022-08-26T03:25:28.712Z,13.91
2022-08-26T03:26:29.593Z,13.88
2022-08-26T03:27:30.505Z,13.89
2022-08-26T03:28:31.131Z,13.88
2022-08-26T03:29:32.919Z,13.88
2022-08-26T03:30:32.867Z,13.87
2022-08-26T03:31:33.502Z,13.85
2022-08-26T03:32:34.453Z,13.84
2022-08-26T03:33:35.293Z,13.82
2022-08-26T03:34:36.179Z,13.82
2022-08-26T03:35:37.078Z,13.79
2022-08-26T03:36:37.956Z,13.81
2022-08-26T03:37:38.588Z,13.81
2022-08-26T03:38:39.519Z,13.79
2022-08-26T03:39:40.367Z,13.77
2022-08-26T03:40:41.022Z,13.75
2022-08-26T03:41:41.764Z,13.73
2022-08-26T03:42:45.343Z,13.73
2022-08-26T03:43:43.292Z,13.71
2022-08-26T03:44:44.180Z,13.69
2022-08-26T03:45:45.031Z,13.66
2022-08-26T03:46:45.924Z,13.64
2022-08-26T03:47:46.768Z,13.62
2022-08-26T03:48:47.292Z,13.60
2022-08-26T03:49:48.176Z,13.57
2022-08-26T03:50:49.111Z,13.59
2022-08-26T03:51:50.105Z,13.54
2022-08-26T03:52:50.506Z,13.52
2022-08-26T03:53:51.389Z,13.54
2022-08-26T03:54:52.273Z,13.52
2022-08-26T03:55:53.165Z,13.52
2022-08-26T03:56:54.084Z,13.52
2022-08-26T03:57:54.952Z,13.51
2022-08-26T03:58:55.669Z,13.49
2022-08-26T03:59:56.551Z,13.51
2022-08-26T04:00:57.437Z,13.51
2022-08-26T04:01:58.436Z,13.51
2022-08-26T04:02:59.309Z,13.54
2022-08-26T04:04:00.876Z,13.54
2022-08-26T04:05:00.793Z,13.57
2022-08-26T04:06:01.684Z,13.59
2022-08-26T04:07:02.526Z,13.60
2022-08-26T04:08:03.356Z,13.63
2022-08-26T04:09:04.373Z,13.63
2022-08-26T04:10:05.189Z,13.63
2022-08-26T04:11:06.084Z,13.63
2022-08-26T04:12:06.525Z,13.64
2022-08-26T04:13:07.593Z,13.64
2022-08-26T04:14:07.974Z,13.66
2022-08-26T04:15:08.601Z,13.64
2022-08-26T04:16:09.468Z,13.63
2022-08-26T04:17:10.162Z,13.60
2022-08-26T04:18:11.002Z,13.59
2022-08-26T04:19:11.834Z,13.59
2022-08-26T04:20:12.663Z,13.59
2022-08-26T04:21:13.530Z,13.59
2022-08-26T04:22:14.181Z,13.55
2022-08-26T04:23:15.008Z,13.55
2022-08-26T04:24:15.525Z,13.51
2022-08-26T04:25:16.328Z,13.49
2022-08-26T04:26:16.849Z,13.46
2022-08-26T04:27:17.730Z,13.44
2022-08-26T04:28:18.531Z,13.41
2022-08-26T04:29:19.353Z,13.39
2022-08-26T04:30:20.210Z,13.38
2022-08-26T04:31:21.002Z,13.38
2022-08-26T04:32:21.811Z,13.39
2022-08-26T04:33:32.251Z,13.39
2022-08-26T04:34:24.362Z,13.41
2022-08-26T04:35:25.939Z,13.42
2022-08-26T04:36:24.463Z,13.46
2022-08-26T04:37:25.292Z,13.51
2022-08-26T04:38:25.899Z,13.52
2022-08-26T04:39:27.629Z,13.57
2022-08-26T04:40:27.235Z,13.63
2022-08-26T04:41:28.019Z,13.67
2022-08-26T04:42:28.838Z,13.71
2022-08-26T04:43:29.658Z,13.77
2022-08-26T04:44:30.488Z,13.78
2022-08-26T04:45:31.360Z,13.78
2022-08-26T04:46:32.213Z,13.81
2022-08-26T04:47:33.065Z,13.82
2022-08-26T04:48:33.861Z,13.85
2022-08-26T04:49:35.122Z,13.87
2022-08-26T04:50:35.443Z,13.88
2022-08-26T04:51:36.129Z,13.87
2022-08-26T04:52:36.885Z,13.87
2022-08-26T04:53:37.285Z,13.85
2022-08-26T04:54:38.107Z,13.85
2022-08-26T04:55:39.785Z,13.85
2022-08-26T04:56:39.515Z,13.88
2022-08-26T04:57:40.344Z,13.89
2022-08-26T04:58:41.212Z,13.89
2022-08-26T04:59:41.831Z,13.88
2022-08-26T05:00:42.665Z,13.92
2022-08-26T05:01:43.576Z,13.91
2022-08-26T05:02:44.344Z,13.95
2022-08-26T05:03:45.211Z,13.92
2022-08-26T05:04:46.053Z,13.95
2022-08-26T05:05:46.845Z,13.96
2022-08-26T05:06:47.710Z,13.96
2022-08-26T05:07:48.535Z,13.99
2022-08-26T05:08:49.214Z,14.00
2022-08-26T05:09:50.045Z,14.02
2022-08-26T05:10:50.929Z,14.02
2022-08-26T05:11:52.007Z,14.04
2022-08-26T05:12:52.514Z,14.03
2022-08-26T05:13:53.387Z,14.02
2022-08-26T05:14:54.204Z,14.06
2022-08-26T05:15:58.160Z,14.03
2022-08-26T05:16:56.685Z,14.07
2022-08-26T05:17:56.388Z,14.09
2022-08-26T05:18:57.339Z,14.10
2022-08-26T05:19:58.157Z,14.12
2022-08-26T05:20:58.996Z,14.15
2022-08-26T05:21:59.861Z,14.15
2022-08-26T05:23:00.649Z,14.14
2022-08-26T05:24:01.478Z,14.15
2022-08-26T05:25:02.441Z,14.18
2022-08-26T05:26:05.021Z,14.18
2022-08-26T05:27:03.885Z,14.21
2022-08-26T05:28:05.609Z,14.22
2022-08-26T05:29:05.432Z,14.24
2022-08-26T05:30:06.314Z,14.25
2022-08-26T05:31:07.200Z,14.28
2022-08-26T05:32:08.013Z,14.29
2022-08-26T05:33:09.093Z,14.33
2022-08-26T05:34:09.611Z,14.33
2022-08-26T05:35:10.433Z,14.37
2022-08-26T05:36:11.279Z,14.40
2022-08-26T05:37:13.673Z,14.43
2022-08-26T05:38:13.043Z,14.46
2022-08-26T05:39:13.861Z,14.47
2022-08-26T05:40:14.407Z,14.50
2022-08-26T05:41:15.575Z,14.47
2022-08-26T05:42:15.913Z,14.46
2022-08-26T05:43:16.712Z,14.47
2022-08-26T05:44:17.263Z,14.50
2022-08-26T05:45:18.092Z,14.50
2022-08-26T05:46:19.007Z,14.47
2022-08-26T05:47:19.799Z,14.50
2022-08-26T05:48:22.744Z,14.51
2022-08-26T05:49:22.566Z,14.52
2022-08-26T05:50:22.192Z,14.54
2022-08-26T05:51:26.024Z,14.55
2022-08-26T05:52:25.828Z,14.57
2022-08-26T05:53:26.197Z,14.58
2022-08-26T05:54:25.515Z,14.60
2022-08-26T05:55:26.360Z,14.61
2022-08-26T05:56:27.221Z,14.62
2022-08-26T05:57:28.034Z,14.64
2022-08-26T05:58:28.611Z,14.65
2022-08-26T05:59:29.431Z,14.65
2022-08-26T06:00:30.317Z,14.69
2022-08-26T06:01:31.343Z,14.72
2022-08-26T06:02:32.069Z,14.70
2022-08-26T06:03:33.020Z,14.72
2022-08-26T06:04:33.873Z,14.72
2022-08-26T06:05:38.301Z,14.73
2022-08-26T06:06:35.588Z,14.78
2022-08-26T06:07:36.448Z,14.83
2022-08-26T06:08:37.057Z,14.84
2022-08-26T06:09:38.519Z,14.88
2022-08-26T06:10:38.410Z,14.92
2022-08-26T06:11:39.239Z,14.94
2022-08-26T06:12:40.068Z,14.98
2022-08-26T06:13:40.966Z,15.02
2022-08-26T06:14:41.798Z,15.06
2022-08-26T06:15:42.697Z,15.10
2022-08-26T06:16:43.455Z,15.11
2022-08-26T06:17:44.212Z,15.16
2022-08-26T06:18:45.036Z,15.20
2022-08-26T06:19:45.882Z,15.27
2022-08-26T06:20:57.085Z,15.29
2022-08-26T06:21:51.324Z,15.35
2022-08-26T06:22:49.156Z,15.39
2022-08-26T06:23:49.040Z,15.47
2022-08-26T06:24:49.831Z,15.51
2022-08-26T06:25:50.517Z,15.59
2022-08-26T06:26:51.383Z,15.67
2022-08-26T06:27:52.191Z,15.72
2022-08-26T06:28:53.023Z,15.82
2022-08-26T06:29:53.851Z,15.89
2022-08-26T06:30:54.769Z,15.94
2022-08-26T06:31:56.134Z,16.05
2022-08-26T06:32:56.121Z,16.11
2022-08-26T06:33:56.949Z,16.20
2022-08-26T06:34:57.701Z,16.23
2022-08-26T06:35:58.538Z,16.25
2022-08-26T06:36:59.188Z,16.31
2022-08-26T06:38:00.035Z,16.34
2022-08-26T06:39:00.689Z,16.38
2022-08-26T06:40:01.591Z,16.41
2022-08-26T06:41:02.106Z,16.42
2022-08-26T06:42:03.164Z,16.42
2022-08-26T06:43:03.347Z,16.46
2022-08-26T06:44:04.275Z,16.46
2022-08-26T06:45:05.094Z,16.49
2022-08-26T06:46:05.987Z,16.52
2022-08-26T06:47:06.658Z,16.56
2022-08-26T06:48:07.477Z,16.57
2022-08-26T06:49:08.305Z,16.61
2022-08-26T06:50:09.144Z,16.64
2022-08-26T06:51:09.966Z,16.67
2022-08-26T06:52:10.798Z,16.71
2022-08-26T06:53:11.625Z,16.73
2022-08-26T06:54:12.456Z,16.75
2022-08-26T06:55:13.304Z,16.78
2022-08-26T06:56:14.171Z,16.76
2022-08-26T06:57:14.980Z,16.76
2022-08-26T06:58:15.620Z,16.79
2022-08-26T06:59:16.451Z,16.81
2022-08-26T07:00:17.171Z,16.85
2022-08-26T07:01:18.210Z,16.85
2022-08-26T07:02:18.557Z,16.88
2022-08-26T07:03:19.336Z,16.94
2022-08-26T07:04:22.438Z,16.97
2022-08-26T07:05:21.044Z,17.01
2022-08-26T07:06:21.875Z,17.08
2022-08-26T07:07:22.706Z,17.19
2022-08-26T07:08:23.584Z,17.25
2022-08-26T07:09:24.387Z,17.36
2022-08-26T07:10:25.202Z,17.46
2022-08-26T07:11:26.049Z,17.64
2022-08-26T07:12:26.650Z,17.89
2022-08-26T07:13:30.737Z,18.10
2022-08-26T07:14:28.267Z,18.35
2022-08-26T07:15:31.189Z,18.65
2022-08-26T07:16:29.926Z,18.95
2022-08-26T07:17:30.794Z,19.29
2022-08-26T07:18:31.615Z,19.62
2022-08-26T07:19:32.563Z,19.91
2022-08-26T07:20:33.435Z,20.17
2022-08-26T07:21:34.294Z,20.47
2022-08-26T07:22:35.114Z,20.76
2022-08-26T07:23:35.954Z,20.67
2022-08-26T07:24:36.804Z,20.58
2022-08-26T07:25:37.631Z,20.92
2022-08-26T07:26:38.451Z,21.14
2022-08-26T07:27:39.264Z,21.35
2022-08-26T07:28:40.085Z,21.54
2022-08-26T07:29:40.913Z,21.69
2022-08-26T07:30:41.760Z,21.82
2022-08-26T07:31:42.989Z,21.83
2022-08-26T07:32:43.385Z,21.74
2022-08-26T07:33:44.203Z,21.71
2022-08-26T07:34:45.024Z,21.62
2022-08-26T07:35:45.853Z,21.53
2022-08-26T07:36:46.694Z,21.47
2022-08-26T07:37:47.584Z,21.37
2022-08-26T07:38:48.378Z,21.31
2022-08-26T07:39:49.346Z,21.21
2022-08-26T07:40:50.150Z,21.16
2022-08-26T07:41:51.001Z,21.13
2022-08-26T07:42:51.814Z,21.14
2022-08-26T07:43:52.332Z,21.13
2022-08-26T07:44:53.330Z,21.09
2022-08-26T07:45:54.137Z,21.03
2022-08-26T07:46:54.717Z,20.95
2022-08-26T07:47:55.548Z,20.91
2022-08-26T07:48:56.319Z,20.87
2022-08-26T07:49:57.149Z,20.82
2022-08-26T07:50:58.007Z,20.76
2022-08-26T07:51:58.822Z,20.73
2022-08-26T07:52:59.653Z,20.69
2022-08-26T07:54:00.341Z,20.67
2022-08-26T07:55:01.162Z,20.62
2022-08-26T07:56:01.991Z,20.59
2022-08-26T07:57:05.163Z,20.58
2022-08-26T07:58:04.266Z,20.55
2022-08-26T07:59:04.097Z,20.52
2022-08-26T08:00:05.812Z,20.51
2022-08-26T08:01:05.696Z,20.48
2022-08-26T08:02:06.634Z,20.48
2022-08-26T08:03:07.705Z,20.43
2022-08-26T08:04:08.146Z,20.42
2022-08-26T08:05:09.103Z,20.43
2022-08-26T08:06:09.889Z,20.43
2022-08-26T08:07:11.533Z,20.43
2022-08-26T08:08:26.699Z,20.48
2022-08-26T08:09:13.048Z,20.50
2022-08-26T08:10:12.957Z,20.50
2022-08-26T08:11:13.776Z,20.51
2022-08-26T08:12:14.615Z,20.52
2022-08-26T08:13:15.406Z,20.51
2022-08-26T08:14:16.235Z,20.51
2022-08-26T08:15:17.130Z,20.54
2022-08-26T08:16:17.962Z,20.54
2022-08-26T08:17:18.785Z,20.52
2022-08-26T08:18:20.600Z,20.54
2022-08-26T08:19:19.988Z,20.55
2022-08-26T08:20:20.590Z,20.55
2022-08-26T08:21:23.936Z,20.57
2022-08-26T08:22:22.063Z,20.64
2022-08-26T08:23:22.881Z,20.69
2022-08-26T08:24:23.380Z,20.77
2022-08-26T08:25:24.272Z,20.87
2022-08-26T08:26:25.101Z,20.95
2022-08-26T08:27:26.028Z,21.06
2022-08-26T08:28:26.845Z,21.16
2022-08-26T08:29:27.666Z,21.28
2022-08-26T08:30:28.506Z,21.42
2022-08-26T08:31:55.995Z,21.53
2022-08-26T08:32:31.055Z,21.68
2022-08-26T08:33:30.884Z,21.77
2022-08-26T08:34:31.773Z,21.83
2022-08-26T08:35:32.575Z,21.96
2022-08-26T08:36:36.156Z,22.07
2022-08-26T08:37:34.185Z,22.20
2022-08-26T08:38:34.757Z,22.33
2022-08-26T08:39:35.379Z,22.45
2022-08-26T08:40:36.260Z,22.55
2022-08-26T08:41:37.080Z,22.62
2022-08-26T08:42:37.905Z,22.73
2022-08-26T08:43:38.720Z,22.85
2022-08-26T08:44:39.550Z,22.92
2022-08-26T08:45:40.554Z,22.97
2022-08-26T08:46:41.339Z,23.04
2022-08-26T08:47:42.113Z,23.10
2022-08-26T08:48:42.936Z,23.10
2022-08-26T08:49:43.760Z,23.15
2022-08-26T08:50:44.417Z,23.16
2022-08-26T08:51:45.317Z,23.20
2022-08-26T08:52:46.158Z,23.28
2022-08-26T08:53:47.059Z,23.32
2022-08-26T08:54:47.871Z,23.35
2022-08-26T08:55:48.432Z,23.35
2022-08-26T08:56:48.996Z,23.39
2022-08-26T08:57:49.817Z,23.42
2022-08-26T08:58:50.618Z,23.42
2022-08-26T08:59:51.492Z,23.43
2022-08-26T09:00:52.348Z,23.48
2022-08-26T09:01:53.982Z,23.48
2022-08-26T09:02:53.952Z,23.51
2022-08-26T09:03:54.784Z,23.51
2022-08-26T09:04:55.618Z,23.51
2022-08-26T09:05:56.301Z,23.54
2022-08-26T09:07:57.860Z,23.54
2022-08-26T09:08:58.689Z,23.55
2022-08-26T09:09:59.523Z,23.57
2022-08-26T09:11:00.355Z,23.55
2022-08-26T09:12:01.238Z,23.55
2022-08-26T09:13:02.381Z,23.51
2022-08-26T09:14:02.860Z,23.48
2022-08-26T09:15:03.689Z,23.43
2022-08-26T09:16:04.513Z,23.39
2022-08-26T09:17:05.405Z,23.36
2022-08-26T09:18:06.165Z,23.35
2022-08-26T09:19:06.949Z,23.35
2022-08-26T09:20:07.771Z,23.36
2022-08-26T09:21:08.441Z,23.38
2022-08-26T09:22:09.916Z,23.40
2022-08-26T09:23:09.959Z,23.43
2022-08-26T09:24:11.343Z,23.47
2022-08-26T09:25:11.307Z,23.53
2022-08-26T09:26:12.062Z,23.54
2022-08-26T09:27:12.913Z,23.57
2022-08-26T09:28:13.743Z,23.61
2022-08-26T09:29:14.636Z,23.66
2022-08-26T09:30:15.458Z,23.68
2022-08-26T09:31:16.051Z,23.70
2022-08-26T09:32:16.862Z,23.76
2022-08-26T09:33:17.711Z,23.80
2022-08-26T09:34:18.475Z,23.90
2022-08-26T09:35:19.371Z,23.95
2022-08-26T09:36:20.221Z,24.02
2022-08-26T09:37:21.187Z,24.06
2022-08-26T09:38:22.018Z,24.12
2022-08-26T09:39:22.847Z,24.13
2022-08-26T09:40:23.802Z,24.12
2022-08-26T09:41:24.431Z,24.08
2022-08-26T09:42:25.301Z,24.02
2022-08-26T09:43:26.117Z,23.98
2022-08-26T09:44:26.950Z,23.95
2022-08-26T09:45:27.779Z,24.00
2022-08-26T09:46:28.772Z,24.00
2022-08-26T09:47:29.591Z,24.05
2022-08-26T09:48:30.450Z,24.09
2022-08-26T09:49:35.854Z,24.12
2022-08-26T09:50:32.970Z,24.15
2022-08-26T09:51:32.605Z,24.18
2022-08-26T09:52:33.399Z,24.22
2022-08-26T09:53:34.229Z,24.30
2022-08-26T09:54:35.085Z,24.40
2022-08-26T09:55:35.889Z,24.45
2022-08-26T09:56:36.621Z,24.53
2022-08-26T09:57:37.459Z,24.60
2022-08-26T09:58:38.285Z,24.67
2022-08-26T09:59:39.118Z,24.76
2022-08-26T10:00:39.964Z,24.81
2022-08-26T10:01:40.922Z,24.88
2022-08-26T10:02:41.771Z,24.93
2022-08-26T10:03:43.535Z,24.96
2022-08-26T10:04:43.380Z,25.03
2022-08-26T10:05:44.199Z,25.06
2022-08-26T10:06:45.031Z,25.13
2022-08-26T10:07:45.875Z,25.15
2022-08-26T10:08:47.575Z,25.17
2022-08-26T10:09:47.615Z,25.23
2022-08-26T10:10:48.917Z,25.25
2022-08-26T10:11:50.154Z,25.28
2022-08-26T10:12:49.969Z,25.32
2022-08-26T10:13:50.795Z,25.35
2022-08-26T10:14:51.408Z,25.36
2022-08-26T10:15:52.234Z,25.36
2022-08-26T10:16:53.054Z,25.39
2022-08-26T10:17:53.475Z,25.40
2022-08-26T10:18:58.101Z,25.40
2022-08-26T10:19:57.727Z,25.43
2022-08-26T10:20:55.663Z,25.42
2022-08-26T10:21:56.496Z,25.45
2022-08-26T10:22:57.333Z,25.42
2022-08-26T10:23:58.167Z,25.39
2022-08-26T10:24:58.999Z,25.38
2022-08-26T10:25:59.835Z,25.36
2022-08-26T10:27:00.856Z,25.35
2022-08-26T10:28:01.792Z,25.30
2022-08-26T10:29:02.552Z,25.28
2022-08-26T10:30:03.387Z,25.24
2022-08-26T10:31:04.214Z,25.23
2022-08-26T10:32:05.147Z,25.20
2022-08-26T10:33:06.028Z,25.17
2022-08-26T10:34:06.847Z,25.13
2022-08-26T10:35:07.679Z,25.14
2022-08-26T10:36:08.502Z,25.13
2022-08-26T10:37:14.383Z,25.08
2022-08-26T10:38:11.031Z,25.05
2022-08-26T10:39:10.791Z,25.00
2022-08-26T10:40:11.450Z,24.98
2022-08-26T10:41:13.125Z,24.93
2022-08-26T10:42:13.119Z,24.95
2022-08-26T10:43:13.951Z,24.95
2022-08-26T10:44:14.801Z,24.96
2022-08-26T10:45:15.565Z,24.96
2022-08-26T10:46:15.907Z,24.98
2022-08-26T10:47:16.767Z,25.02
2022-08-26T10:48:17.734Z,25.03
2022-08-26T10:49:18.486Z,25.05
2022-08-26T10:50:19.322Z,25.08
2022-08-26T10:51:19.985Z,25.09
2022-08-26T10:52:20.834Z,25.10
2022-08-26T10:53:25.333Z,25.13
2022-08-26T10:54:22.189Z,25.14
2022-08-26T10:55:23.016Z,25.14
2022-08-26T10:56:23.849Z,25.15
2022-08-26T10:57:24.684Z,25.18
2022-08-26T10:58:26.645Z,25.15
2022-08-26T10:59:26.260Z,25.17
2022-08-26T11:00:27.596Z,25.18
2022-08-26T11:01:28.016Z,25.18
2022-08-26T11:02:28.879Z,25.20
2022-08-26T11:03:29.731Z,25.21
2022-08-26T11:04:30.636Z,25.23
2022-08-26T11:05:31.150Z,25.24
2022-08-26T11:06:31.981Z,25.27
2022-08-26T11:07:32.618Z,25.27
2022-08-26T11:08:33.484Z,25.28
2022-08-26T11:09:34.307Z,25.30
2022-08-26T11:10:35.138Z,25.35
2022-08-26T11:11:35.972Z,25.35
2022-08-26T11:12:37.270Z,25.38
2022-08-26T11:13:41.521Z,25.39
2022-08-26T11:14:53.328Z,25.40
2022-08-26T11:15:39.729Z,25.40
2022-08-26T11:16:42.812Z,25.42
2022-08-26T11:17:40.351Z,25.43
2022-08-26T11:18:41.191Z,25.43
2022-08-26T11:19:59.312Z,25.43
2022-08-26T11:20:43.462Z,25.39
2022-08-26T11:21:43.291Z,25.36
2022-08-26T11:22:48.048Z,25.35
2022-08-26T11:23:45.024Z,25.33
2022-08-26T11:24:46.754Z,25.28
2022-08-26T11:25:46.566Z,25.28
2022-08-26T11:26:56.388Z,25.32
2022-08-26T11:27:49.121Z,25.23
2022-08-26T11:28:48.955Z,25.18
2022-08-26T11:29:49.781Z,25.14
2022-08-26T11:30:57.021Z,25.09
2022-08-26T11:31:52.397Z,25.06
2022-08-26T11:32:52.240Z,25.05
2022-08-26T11:33:54.165Z,24.99
2022-08-26T11:34:54.065Z,25.00
2022-08-26T11:35:54.875Z,24.99
2022-08-26T11:36:55.690Z,24.96
2022-08-26T11:37:56.542Z,24.98
2022-08-26T11:38:57.367Z,25.00
2022-08-26T11:39:58.370Z,25.03
2022-08-26T11:40:59.187Z,25.06
2022-08-26T11:42:00.095Z,25.09
2022-08-26T11:43:00.948Z,25.10
2022-08-26T11:44:01.560Z,25.14
2022-08-26T11:45:05.490Z,25.18
2022-08-26T11:46:03.147Z,25.24
2022-08-26T11:47:03.920Z,25.28
2022-08-26T11:48:04.749Z,25.38
2022-08-26T11:49:05.621Z,25.42
2022-08-26T11:50:06.273Z,25.47
2022-08-26T11:51:07.085Z,25.50
2022-08-26T11:52:07.752Z,25.55
2022-08-26T11:53:08.458Z,25.58
2022-08-26T11:54:09.295Z,25.61
2022-08-26T11:55:10.214Z,25.65
2022-08-26T11:56:11.025Z,25.72
2022-08-26T11:57:11.895Z,25.75
2022-08-26T11:58:12.307Z,25.77
2022-08-26T11:59:13.306Z,25.80
2022-08-26T12:00:15.848Z,25.87
2022-08-26T12:01:15.869Z,25.90
2022-08-26T12:02:15.814Z,25.91
2022-08-26T12:03:16.602Z,25.97
2022-08-26T12:04:17.561Z,25.92
2022-08-26T12:05:18.365Z,25.92
2022-08-26T12:06:19.238Z,25.90
2022-08-26T12:07:23.807Z,25.88
2022-08-26T12:08:20.629Z,25.85
2022-08-26T12:09:21.410Z,25.80
2022-08-26T12:10:22.240Z,25.77
2022-08-26T12:11:23.181Z,25.70
2022-08-26T12:12:24.011Z,25.65
2022-08-26T12:13:25.062Z,25.60
2022-08-26T12:14:25.294Z,25.55
2022-08-26T12:15:26.005Z,25.50
2022-08-26T12:16:26.916Z,25.45
2022-08-26T12:17:27.708Z,25.36
2022-08-26T12:18:29.517Z,25.32
2022-08-26T12:19:29.334Z,25.25
2022-08-26T12:20:29.810Z,25.21
2022-08-26T12:21:34.628Z,25.14
2022-08-26T12:22:31.295Z,25.09
2022-08-26T12:23:32.122Z,25.03
2022-08-26T12:24:32.639Z,24.98
2022-08-26T12:25:35.985Z,24.95
2022-08-26T12:26:34.074Z,24.91
2022-08-26T12:27:34.906Z,24.90
2022-08-26T12:28:35.734Z,24.88
2022-08-26T12:29:36.258Z,24.84
2022-08-26T12:30:37.086Z,24.84
2022-08-26T12:31:38.011Z,24.83
2022-08-26T12:32:38.478Z,24.81
2022-08-26T12:33:40.196Z,24.78
2022-08-26T12:34:40.036Z,24.76
2022-08-26T12:35:40.856Z,24.73
2022-08-26T12:36:41.776Z,24.68
2022-08-26T12:37:42.763Z,24.65
2022-08-26T12:38:43.471Z,24.61
2022-08-26T12:39:44.310Z,24.60
2022-08-26T12:40:45.144Z,24.61
2022-08-26T12:41:45.973Z,24.62
2022-08-26T12:42:46.803Z,24.58
2022-08-26T12:43:47.659Z,24.64
2022-08-26T12:44:53.080Z,24.68
2022-08-26T12:45:50.225Z,24.76
2022-08-26T12:46:50.059Z,24.78
2022-08-26T12:47:50.845Z,24.81
2022-08-26T12:48:51.674Z,24.80
2022-08-26T12:49:52.544Z,24.81
2022-08-26T12:50:53.346Z,24.83
2022-08-26T12:51:54.176Z,24.81
2022-08-26T12:52:55.005Z,24.80
2022-08-26T12:53:55.830Z,24.81
2022-08-26T12:54:57.187Z,24.83
2022-08-26T12:55:57.496Z,24.87
2022-08-26T12:56:58.308Z,24.90
2022-08-26T12:57:59.139Z,24.93
2022-08-26T12:58:59.881Z,24.98
2022-08-26T13:00:00.711Z,25.03
2022-08-26T13:01:01.664Z,25.05
2022-08-26T13:02:02.561Z,25.10
2022-08-26T13:03:03.407Z,25.15
2022-08-26T13:04:04.230Z,25.18